createdAt,value
2023-05-05T00:01:24.382Z,100.00
2023-05-05T00:03:51.063Z,100.00
2023-05-05T00:06:18.107Z,100.00
2023-05-05T00:08:44.641Z,100.00
2023-05-05T00:11:12.126Z,100.00
2023-05-05T00:13:38.848Z,100.00
2023-05-05T00:16:06.044Z,100.00
2023-05-05T00:18:33.896Z,100.00
2023-05-05T00:21:01.261Z,100.00
2023-05-05T00:23:27.859Z,100.00
2023-05-05T00:25:54.464Z,100.00
2023-05-05T00:28:21.264Z,100.00
2023-05-05T00:30:47.882Z,100.00
2023-05-05T00:33:14.489Z,100.00
2023-05-05T00:35:41.038Z,100.00
2023-05-05T00:38:07.625Z,100.00
2023-05-05T00:40:34.261Z,100.00
2023-05-05T00:43:00.879Z,100.00
2023-05-05T00:45:27.729Z,100.00
2023-05-05T00:47:56.153Z,100.00
2023-05-05T00:50:23.747Z,100.00
2023-05-05T00:52:51.783Z,100.00
2023-05-05T00:55:18.998Z,100.00
2023-05-05T00:57:46.093Z,100.00
2023-05-05T01:00:13.291Z,100.00
2023-05-05T01:02:40.581Z,100.00
2023-05-05T01:05:09.526Z,100.00
2023-05-05T01:08:03.663Z,100.00
2023-05-05T01:10:48.761Z,100.00
2023-05-05T01:13:36.300Z,100.00
2023-05-05T01:16:20.663Z,100.00
2023-05-05T01:19:12.200Z,100.00
2023-05-05T01:21:56.253Z,100.00
2023-05-05T01:24:58.300Z,100.00
2023-05-05T01:27:34.326Z,100.00
2023-05-05T01:30:38.437Z,100.00
2023-05-05T01:33:08.540Z,100.00
2023-05-05T01:35:43.786Z,100.00
2023-05-05T01:38:16.318Z,100.00
2023-05-05T01:40:52.169Z,100.00
2023-05-05T01:43:21.175Z,100.00
2023-05-05T01:45:49.596Z,100.00
2023-05-05T01:48:19.822Z,100.00
2023-05-05T01:50:48.201Z,100.00
2023-05-05T01:53:18.317Z,100.00
2023-05-05T01:55:46.892Z,100.00
2023-05-05T01:58:15.975Z,100.00
2023-05-05T02:00:44.904Z,100.00
2023-05-05T02:03:14.955Z,100.00
2023-05-05T02:05:43.714Z,100.00
2023-05-05T02:08:11.554Z,100.00
2023-05-05T02:10:40.960Z,100.00
2023-05-05T02:13:10.680Z,100.00
2023-05-05T02:15:39.164Z,100.00
2023-05-05T02:18:06.999Z,100.00
2023-05-05T02:20:34.547Z,100.00
2023-05-05T02:23:01.214Z,100.00
2023-05-05T02:25:40.484Z,100.00
2023-05-05T02:28:15.341Z,100.00
2023-05-05T02:30:43.706Z,100.00
2023-05-05T02:33:13.344Z,100.00
2023-05-05T02:35:41.769Z,100.00
2023-05-05T02:38:17.243Z,100.00
2023-05-05T02:40:46.685Z,100.00
2023-05-05T02:43:16.819Z,100.00
2023-05-05T02:45:43.551Z,100.00
2023-05-05T02:48:13.086Z,100.00
2023-05-05T02:50:39.761Z,100.00
2023-05-05T02:53:06.892Z,100.00
2023-05-05T02:56:18.170Z,100.00
2023-05-05T02:59:23.450Z,100.00
2023-05-05T03:02:21.343Z,100.00
2023-05-05T03:04:56.630Z,100.00
2023-05-05T03:07:30.732Z,100.00
2023-05-05T03:10:07.597Z,100.00
2023-05-05T03:12:39.960Z,100.00
2023-05-05T03:15:10.046Z,100.00
2023-05-05T03:17:37.266Z,100.00
2023-05-05T03:20:07.588Z,100.00
2023-05-05T03:22:38.244Z,100.00
2023-05-05T03:25:06.255Z,100.00
2023-05-05T03:27:34.303Z,100.00
2023-05-05T03:30:01.170Z,100.00
2023-05-05T03:32:27.759Z,100.00
2023-05-05T03:34:54.584Z,100.00
2023-05-05T03:37:21.148Z,100.00
2023-05-05T03:39:47.706Z,100.00
2023-05-05T03:42:14.489Z,100.00
2023-05-05T03:44:41.095Z,100.00
2023-05-05T03:47:07.772Z,100.00
2023-05-05T03:49:34.497Z,100.00
2023-05-05T03:52:01.654Z,100.00
2023-05-05T03:54:28.221Z,100.00
2023-05-05T03:56:55.784Z,100.00
2023-05-05T03:59:22.304Z,100.00
2023-05-05T04:01:49.995Z,100.00
2023-05-05T04:04:16.688Z,100.00
2023-05-05T04:06:43.918Z,100.00
2023-05-05T04:09:12.170Z,100.00
2023-05-05T04:11:38.728Z,100.00
2023-05-05T04:14:05.201Z,100.00
2023-05-05T04:16:31.752Z,100.00
2023-05-05T04:18:58.458Z,100.00
2023-05-05T04:21:25.149Z,100.00
2023-05-05T04:23:52.381Z,100.00
2023-05-05T04:26:18.939Z,100.00
2023-05-05T04:28:45.501Z,100.00
2023-05-05T04:31:12.216Z,100.00
2023-05-05T04:33:38.796Z,100.00
2023-05-05T04:36:05.583Z,100.00
2023-05-05T04:38:32.278Z,100.00
2023-05-05T04:40:59.994Z,100.00
2023-05-05T04:43:27.833Z,100.00
2023-05-05T04:45:56.157Z,100.00
2023-05-05T04:48:23.047Z,100.00
2023-05-05T04:50:49.698Z,100.00
2023-05-05T04:53:16.208Z,100.00
2023-05-05T04:55:42.867Z,100.00
2023-05-05T04:58:09.579Z,100.00
2023-05-05T05:00:37.869Z,100.00
2023-05-05T05:03:04.675Z,100.00
2023-05-05T05:05:31.525Z,100.00
2023-05-05T05:07:58.139Z,100.00
2023-05-05T05:10:24.746Z,100.00
2023-05-05T05:12:52.234Z,100.00
2023-05-05T05:15:19.078Z,100.00
2023-05-05T05:17:45.724Z,100.00
2023-05-05T05:20:12.418Z,100.00
2023-05-05T05:22:39.107Z,100.00
2023-05-05T05:25:06.073Z,100.00
2023-05-05T05:27:32.598Z,100.00
2023-05-05T05:29:59.396Z,100.00
2023-05-05T05:32:26.417Z,100.00
2023-05-05T05:34:53.013Z,100.00
2023-05-05T05:37:19.565Z,100.00
2023-05-05T05:39:52.151Z,100.00
2023-05-05T05:42:19.509Z,100.00
2023-05-05T05:44:46.128Z,100.00
2023-05-05T05:47:12.658Z,100.00
2023-05-05T05:49:39.276Z,100.00
2023-05-05T05:52:06.253Z,100.00
2023-05-05T05:54:34.870Z,100.00
2023-05-05T05:57:02.571Z,100.00
2023-05-05T05:59:29.201Z,100.00
2023-05-05T06:01:56.227Z,100.00
2023-05-05T06:04:23.187Z,100.00
2023-05-05T06:06:49.870Z,100.00
2023-05-05T06:09:16.479Z,100.00
2023-05-05T06:11:43.128Z,100.00
2023-05-05T06:14:09.716Z,100.00
2023-05-05T06:16:36.319Z,100.00
2023-05-05T06:19:04.388Z,100.00
2023-05-05T06:21:31.075Z,100.00
2023-05-05T06:23:57.692Z,100.00
2023-05-05T06:26:24.255Z,100.00
2023-05-05T06:28:50.877Z,100.00
2023-05-05T06:31:17.599Z,100.00
2023-05-05T06:33:44.242Z,100.00
2023-05-05T06:36:10.949Z,100.00
2023-05-05T06:38:37.525Z,100.00
2023-05-05T06:41:04.323Z,100.00
2023-05-05T06:43:31.510Z,100.00
2023-05-05T06:45:58.123Z,100.00
2023-05-05T06:48:25.012Z,100.00
2023-05-05T06:50:51.611Z,100.00
2023-05-05T06:53:18.210Z,100.00
2023-05-05T06:55:46.502Z,100.00
2023-05-05T06:58:13.233Z,100.00
2023-05-05T07:00:40.971Z,100.00
2023-05-05T07:03:07.955Z,100.00
2023-05-05T07:05:34.498Z,100.00
2023-05-05T07:08:01.016Z,100.00
2023-05-05T07:10:28.059Z,100.00
2023-05-05T07:12:55.177Z,100.00
2023-05-05T07:15:28.855Z,100.00
2023-05-05T07:17:56.929Z,100.00
2023-05-05T07:20:24.360Z,100.00
2023-05-05T07:22:51.490Z,100.00
2023-05-05T07:25:18.206Z,100.00
2023-05-05T07:27:45.030Z,100.00
2023-05-05T07:30:15.562Z,100.00
2023-05-05T07:32:44.763Z,100.00
2023-05-05T07:35:11.450Z,100.00
2023-05-05T07:37:38.098Z,100.00
2023-05-05T07:40:05.191Z,100.00
2023-05-05T07:42:31.731Z,100.00
2023-05-05T07:44:58.430Z,100.00
2023-05-05T07:47:25.129Z,100.00
2023-05-05T07:49:51.689Z,100.00
2023-05-05T07:52:33.079Z,100.00
2023-05-05T07:55:04.463Z,100.00
2023-05-05T07:57:30.991Z,100.00
2023-05-05T07:59:57.523Z,100.00
2023-05-05T08:02:24.306Z,100.00
2023-05-05T08:04:50.895Z,100.00
2023-05-05T08:07:17.431Z,100.00
2023-05-05T08:09:44.007Z,100.00
2023-05-05T08:12:12.375Z,100.00
2023-05-05T08:14:40.925Z,100.00
2023-05-05T08:17:07.447Z,100.00
2023-05-05T08:19:34.072Z,100.00
2023-05-05T08:22:01.748Z,100.00
2023-05-05T08:24:28.354Z,100.00
2023-05-05T08:26:56.171Z,100.00
2023-05-05T08:29:23.098Z,100.00
2023-05-05T08:31:49.735Z,100.00
2023-05-05T08:34:16.326Z,100.00
2023-05-05T08:36:42.878Z,100.00
2023-05-05T08:39:09.805Z,100.00
2023-05-05T08:41:36.369Z,100.00
2023-05-05T08:44:03.068Z,100.00
2023-05-05T08:46:31.588Z,100.00
2023-05-05T08:49:00.210Z,100.00
2023-05-05T08:51:31.732Z,100.00
2023-05-05T08:54:02.896Z,99.55
2023-05-05T08:56:34.394Z,100.00
2023-05-05T08:59:02.669Z,100.00
2023-05-05T09:01:32.596Z,100.00
2023-05-05T09:04:00.014Z,94.05
2023-05-05T09:06:27.426Z,91.92
2023-05-05T09:08:54.490Z,92.72
2023-05-05T09:11:22.647Z,90.14
2023-05-05T09:13:49.932Z,93.96
2023-05-05T09:16:16.689Z,96.28
2023-05-05T09:18:43.334Z,97.43
2023-05-05T09:21:21.378Z,97.04
2023-05-05T09:24:09.234Z,96.21
2023-05-05T09:26:38.696Z,99.40
2023-05-05T09:29:06.133Z,98.38
2023-05-05T09:31:36.777Z,94.43
2023-05-05T09:34:15.521Z,90.85
2023-05-05T09:36:47.575Z,90.91
2023-05-05T09:39:19.160Z,91.68
2023-05-05T09:41:46.964Z,93.02
2023-05-05T09:44:16.153Z,90.88
2023-05-05T09:46:53.573Z,90.71
2023-05-05T09:49:26.988Z,93.57
2023-05-05T09:51:54.915Z,94.95
2023-05-05T09:54:23.248Z,96.52
2023-05-05T09:56:50.868Z,97.71
2023-05-05T09:59:17.774Z,100.00
2023-05-05T10:01:45.671Z,100.00
2023-05-05T10:04:31.596Z,100.00
2023-05-05T10:06:59.172Z,100.00
2023-05-05T10:09:27.090Z,100.00
2023-05-05T10:11:56.282Z,100.00
2023-05-05T10:14:25.268Z,99.43
2023-05-05T10:16:54.479Z,100.00
2023-05-05T10:19:25.008Z,97.89
2023-05-05T10:21:54.515Z,99.49
2023-05-05T10:24:50.250Z,96.15
2023-05-05T10:27:23.344Z,93.01
2023-05-05T10:29:52.828Z,91.85
2023-05-05T10:32:56.350Z,91.95
2023-05-05T10:35:22.983Z,96.70
2023-05-05T10:37:52.183Z,97.84
2023-05-05T10:40:22.110Z,96.75
2023-05-05T10:42:51.853Z,96.77
2023-05-05T10:45:18.550Z,98.03
2023-05-05T10:47:45.521Z,100.00
2023-05-05T10:50:29.921Z,100.00
2023-05-05T10:53:39.740Z,95.11
2023-05-05T10:56:14.508Z,97.10
2023-05-05T10:58:58.463Z,100.00
2023-05-05T11:01:33.434Z,100.00
2023-05-05T11:04:22.743Z,100.00
2023-05-05T11:07:09.796Z,100.00
2023-05-05T11:09:57.731Z,99.47
2023-05-05T11:12:24.720Z,98.71
2023-05-05T11:15:22.198Z,98.24
2023-05-05T11:17:49.094Z,100.00
2023-05-05T11:20:16.142Z,100.00
2023-05-05T11:23:05.019Z,100.00
2023-05-05T11:25:35.533Z,100.00
2023-05-05T11:28:08.763Z,100.00
2023-05-05T11:30:59.493Z,100.00
2023-05-05T11:33:38.932Z,100.00
2023-05-05T11:36:07.376Z,100.00
2023-05-05T11:39:02.644Z,100.00
2023-05-05T11:41:32.330Z,100.00
2023-05-05T11:44:14.877Z,100.00
2023-05-05T11:47:06.100Z,100.00
2023-05-05T11:49:38.049Z,100.00
2023-05-05T11:52:12.900Z,100.00
2023-05-05T11:54:41.674Z,99.85
2023-05-05T11:57:11.585Z,97.61
2023-05-05T11:59:49.793Z,96.12
2023-05-05T12:02:18.049Z,96.08
2023-05-05T12:04:46.917Z,95.63
2023-05-05T12:07:22.106Z,94.94
2023-05-05T12:09:49.957Z,96.67
2023-05-05T12:12:16.999Z,94.61
2023-05-05T12:14:47.058Z,92.86
2023-05-05T12:17:14.226Z,91.77
2023-05-05T12:19:52.268Z,91.20
2023-05-05T12:22:24.016Z,92.98
2023-05-05T12:25:01.476Z,90.31
2023-05-05T12:27:28.943Z,88.86
2023-05-05T12:29:57.653Z,90.73
2023-05-05T12:32:27.853Z,94.89
2023-05-05T12:34:57.337Z,94.04
2023-05-05T12:37:26.148Z,98.09
2023-05-05T12:39:55.100Z,97.86
2023-05-05T12:42:22.578Z,99.66
2023-05-05T12:44:49.514Z,100.00
2023-05-05T12:47:32.892Z,100.00
2023-05-05T12:50:00.801Z,100.00
2023-05-05T12:52:44.654Z,100.00
2023-05-05T12:55:11.856Z,100.00
2023-05-05T12:57:39.518Z,100.00
2023-05-05T13:00:14.869Z,100.00
2023-05-05T13:02:41.560Z,100.00
2023-05-05T13:05:08.980Z,100.00
2023-05-05T13:07:35.682Z,100.00
2023-05-05T13:10:10.805Z,100.00
2023-05-05T13:12:37.722Z,100.00
2023-05-05T13:15:04.687Z,100.00
2023-05-05T13:17:34.112Z,100.00
2023-05-05T13:20:01.309Z,100.00
2023-05-05T13:22:27.835Z,100.00
2023-05-05T13:24:54.445Z,100.00
2023-05-05T13:27:21.313Z,100.00
2023-05-05T13:29:47.995Z,100.00
2023-05-05T13:32:14.492Z,100.00
2023-05-05T13:34:42.701Z,100.00
2023-05-05T13:37:09.432Z,100.00
2023-05-05T13:39:36.964Z,100.00
2023-05-05T13:42:03.837Z,100.00
2023-05-05T13:44:30.432Z,100.00
2023-05-05T13:46:57.114Z,100.00
2023-05-05T13:49:24.263Z,100.00
2023-05-05T13:51:50.847Z,100.00
2023-05-05T13:54:17.474Z,100.00
2023-05-05T13:56:44.192Z,100.00
2023-05-05T13:59:10.887Z,100.00
2023-05-05T14:01:37.717Z,100.00
2023-05-05T14:04:05.597Z,100.00
2023-05-05T14:06:33.537Z,100.00
2023-05-05T14:09:00.125Z,100.00
2023-05-05T14:11:26.806Z,100.00
2023-05-05T14:13:53.415Z,100.00
2023-05-05T14:16:20.367Z,100.00
2023-05-05T14:18:46.937Z,100.00
2023-05-05T14:21:13.546Z,100.00
2023-05-05T14:23:40.274Z,100.00
2023-05-05T14:26:08.880Z,100.00
2023-05-05T14:28:35.663Z,100.00
2023-05-05T14:31:02.239Z,100.00
2023-05-05T14:33:28.799Z,100.00
2023-05-05T14:35:55.851Z,100.00
2023-05-05T14:38:22.570Z,100.00
2023-05-05T14:40:49.287Z,100.00
2023-05-05T14:43:15.847Z,100.00
2023-05-05T14:45:44.250Z,100.00
2023-05-05T14:48:10.985Z,100.00
2023-05-05T14:50:41.020Z,100.00
2023-05-05T14:53:07.557Z,100.00
2023-05-05T14:55:34.131Z,100.00
2023-05-05T14:58:00.851Z,100.00
2023-05-05T15:00:27.950Z,100.00
2023-05-05T15:02:54.618Z,100.00
2023-05-05T15:05:21.364Z,100.00
2023-05-05T15:07:47.990Z,100.00
2023-05-05T15:10:15.043Z,100.00
2023-05-05T15:12:42.852Z,100.00
2023-05-05T15:15:10.298Z,100.00
2023-05-05T15:17:38.745Z,100.00
2023-05-05T15:20:06.814Z,100.00
2023-05-05T15:22:33.839Z,100.00
2023-05-05T15:25:00.520Z,100.00
2023-05-05T15:27:27.367Z,100.00
2023-05-05T15:29:55.342Z,100.00
2023-05-05T15:32:22.054Z,100.00
2023-05-05T15:34:50.395Z,100.00
2023-05-05T15:37:17.393Z,100.00
2023-05-05T15:39:43.988Z,100.00
2023-05-05T15:42:10.677Z,100.00
2023-05-05T15:44:37.274Z,100.00
2023-05-05T15:47:04.346Z,100.00
2023-05-05T15:49:31.263Z,100.00
2023-05-05T15:51:58.038Z,100.00
2023-05-05T15:54:24.791Z,100.00
2023-05-05T15:56:52.423Z,100.00
2023-05-05T15:59:19.382Z,100.00
2023-05-05T16:01:46.871Z,100.00
2023-05-05T16:04:13.829Z,100.00
2023-05-05T16:06:41.024Z,100.00
2023-05-05T16:09:07.823Z,100.00
2023-05-05T16:11:34.983Z,100.00
2023-05-05T16:14:01.498Z,100.00
2023-05-05T16:16:28.445Z,100.00
2023-05-05T16:18:55.194Z,100.00
2023-05-05T16:21:22.184Z,100.00
2023-05-05T16:23:48.755Z,100.00
2023-05-05T16:26:15.433Z,100.00
2023-05-05T16:28:42.053Z,100.00
2023-05-05T16:31:11.028Z,100.00
2023-05-05T16:33:40.794Z,100.00
2023-05-05T16:36:10.103Z,100.00
2023-05-05T16:38:37.374Z,100.00
2023-05-05T16:41:04.266Z,100.00
2023-05-05T16:43:31.050Z,100.00
2023-05-05T16:45:57.674Z,100.00
2023-05-05T16:48:24.317Z,100.00
2023-05-05T16:50:51.066Z,100.00
2023-05-05T16:53:17.620Z,100.00
2023-05-05T16:55:44.188Z,100.00
2023-05-05T16:58:10.773Z,100.00
2023-05-05T17:00:37.397Z,100.00
2023-05-05T17:03:04.578Z,100.00
2023-05-05T17:05:31.130Z,100.00
2023-05-05T17:07:57.833Z,100.00
2023-05-05T17:10:24.454Z,100.00
2023-05-05T17:12:51.174Z,100.00
2023-05-05T17:15:17.890Z,100.00
2023-05-05T17:17:44.569Z,100.00
2023-05-05T17:20:12.134Z,100.00
2023-05-05T17:22:38.700Z,100.00
2023-05-05T17:25:06.006Z,100.00
2023-05-05T17:27:35.021Z,100.00
2023-05-05T17:30:01.679Z,100.00
2023-05-05T17:32:28.180Z,100.00
2023-05-05T17:34:54.848Z,100.00
2023-05-05T17:37:21.529Z,100.00
2023-05-05T17:39:48.307Z,100.00
2023-05-05T17:42:16.695Z,100.00
2023-05-05T17:44:43.276Z,100.00
2023-05-05T17:47:10.588Z,100.00
2023-05-05T17:49:37.242Z,100.00
2023-05-05T17:52:03.975Z,100.00
2023-05-05T17:54:30.674Z,100.00
2023-05-05T17:56:57.468Z,100.00
2023-05-05T17:59:24.071Z,100.00
2023-05-05T18:01:50.652Z,100.00
2023-05-05T18:04:17.586Z,100.00
2023-05-05T18:06:44.366Z,100.00
2023-05-05T18:09:11.401Z,100.00
2023-05-05T18:11:38.009Z,100.00
2023-05-05T18:14:04.552Z,100.00
2023-05-05T18:16:31.265Z,100.00
2023-05-05T18:18:57.933Z,100.00
2023-05-05T18:21:24.452Z,100.00
2023-05-05T18:23:51.085Z,100.00
2023-05-05T18:26:17.763Z,100.00
2023-05-05T18:28:44.264Z,100.00
2023-05-05T18:31:10.980Z,100.00
2023-05-05T18:33:37.672Z,100.00
2023-05-05T18:36:04.670Z,100.00
2023-05-05T18:38:32.377Z,100.00
2023-05-05T18:41:00.340Z,100.00
2023-05-05T18:43:26.865Z,100.00
2023-05-05T18:45:53.451Z,100.00
2023-05-05T18:48:20.051Z,100.00
2023-05-05T18:50:47.698Z,100.00
2023-05-05T18:53:14.923Z,100.00
2023-05-05T18:55:43.167Z,100.00
2023-05-05T18:58:09.977Z,100.00
2023-05-05T19:00:38.119Z,100.00
2023-05-05T19:03:05.143Z,100.00
2023-05-05T19:05:31.744Z,100.00
2023-05-05T19:07:58.271Z,100.00
2023-05-05T19:10:24.966Z,100.00
2023-05-05T19:12:51.633Z,100.00
2023-05-05T19:15:18.716Z,100.00
2023-05-05T19:17:45.318Z,100.00
2023-05-05T19:20:11.886Z,100.00
2023-05-05T19:22:38.438Z,100.00
2023-05-05T19:25:05.313Z,100.00
2023-05-05T19:27:35.029Z,100.00
2023-05-05T19:30:01.768Z,100.00
2023-05-05T19:32:28.340Z,100.00
2023-05-05T19:34:54.951Z,100.00
2023-05-05T19:37:21.600Z,100.00
2023-05-05T19:39:49.088Z,100.00
2023-05-05T19:42:16.959Z,100.00
2023-05-05T19:44:43.566Z,100.00
2023-05-05T19:47:10.990Z,100.00
2023-05-05T19:49:37.807Z,100.00
2023-05-05T19:52:04.567Z,100.00
2023-05-05T19:54:31.238Z,100.00
2023-05-05T19:56:57.919Z,100.00
2023-05-05T19:59:24.536Z,100.00
2023-05-05T20:01:51.672Z,100.00
2023-05-05T20:04:18.474Z,100.00
2023-05-05T20:06:45.107Z,100.00
2023-05-05T20:09:11.848Z,100.00
2023-05-05T20:11:38.461Z,100.00
2023-05-05T20:14:05.039Z,100.00
2023-05-05T20:16:31.640Z,100.00
2023-05-05T20:18:58.161Z,100.00
2023-05-05T20:21:24.744Z,100.00
2023-05-05T20:23:51.320Z,100.00
2023-05-05T20:26:18.236Z,100.00
2023-05-05T20:28:45.993Z,100.00
2023-05-05T20:31:14.436Z,100.00
2023-05-05T20:33:41.289Z,100.00
2023-05-05T20:36:08.018Z,100.00
2023-05-05T20:38:34.608Z,100.00
2023-05-05T20:41:01.308Z,100.00
2023-05-05T20:43:27.915Z,100.00
2023-05-05T20:45:54.623Z,100.00
2023-05-05T20:48:21.285Z,100.00
2023-05-05T20:50:47.873Z,100.00
2023-05-05T20:53:15.023Z,100.00
2023-05-05T20:55:41.777Z,100.00
2023-05-05T20:58:08.359Z,100.00
2023-05-05T21:00:35.413Z,100.00
2023-05-05T21:03:02.809Z,100.00
2023-05-05T21:05:31.106Z,100.00
2023-05-05T21:07:59.202Z,100.00
2023-05-05T21:10:27.414Z,100.00
2023-05-05T21:12:54.062Z,100.00
2023-05-05T21:15:20.593Z,100.00
2023-05-05T21:17:47.797Z,100.00
2023-05-05T21:20:14.633Z,100.00
2023-05-05T21:22:41.157Z,100.00
2023-05-05T21:25:16.026Z,100.00
2023-05-05T21:27:42.974Z,100.00
2023-05-05T21:30:11.452Z,100.00
2023-05-05T21:32:39.534Z,100.00
2023-05-05T21:35:08.451Z,100.00
2023-05-05T21:37:37.670Z,100.00
2023-05-05T21:40:06.079Z,100.00
2023-05-05T21:42:32.632Z,100.00
2023-05-05T21:44:59.187Z,100.00
2023-05-05T21:47:27.267Z,100.00
2023-05-05T21:49:53.806Z,100.00
2023-05-05T21:52:21.252Z,100.00
2023-05-05T21:54:47.937Z,100.00
2023-05-05T21:57:14.534Z,100.00
2023-05-05T21:59:41.349Z,100.00
2023-05-05T22:02:07.974Z,100.00
2023-05-05T22:04:34.700Z,100.00
2023-05-05T22:07:01.474Z,100.00
2023-05-05T22:09:28.128Z,100.00
2023-05-05T22:11:55.069Z,100.00
2023-05-05T22:14:21.594Z,100.00
2023-05-05T22:16:48.178Z,100.00
2023-05-05T22:19:14.733Z,100.00
2023-05-05T22:21:41.226Z,100.00
2023-05-05T22:24:07.776Z,100.00
2023-05-05T22:26:34.280Z,100.00
2023-05-05T22:29:01.045Z,100.00
2023-05-05T22:31:27.934Z,100.00
2023-05-05T22:33:54.559Z,100.00
2023-05-05T22:36:21.701Z,100.00
2023-05-05T22:38:48.477Z,100.00
2023-05-05T22:41:15.914Z,100.00
2023-05-05T22:43:42.889Z,100.00
2023-05-05T22:46:09.866Z,100.00
2023-05-05T22:48:36.536Z,100.00
2023-05-05T22:51:03.504Z,100.00
2023-05-05T22:53:30.093Z,100.00
2023-05-05T22:55:58.334Z,100.00
2023-05-05T22:58:25.823Z,100.00
2023-05-05T23:00:52.479Z,100.00
2023-05-05T23:03:19.205Z,100.00
2023-05-05T23:05:45.958Z,100.00
2023-05-05T23:08:12.489Z,100.00
2023-05-05T23:10:39.093Z,100.00
2023-05-05T23:13:05.991Z,100.00
2023-05-05T23:15:32.558Z,100.00
2023-05-05T23:17:59.297Z,100.00
2023-05-05T23:20:26.113Z,100.00
2023-05-05T23:22:52.683Z,100.00
2023-05-05T23:25:19.340Z,100.00
2023-05-05T23:27:45.968Z,100.00
2023-05-05T23:30:12.999Z,100.00
2023-05-05T23:32:39.537Z,100.00
2023-05-05T23:35:06.630Z,100.00
2023-05-05T23:37:33.197Z,100.00
2023-05-05T23:39:59.855Z,100.00
2023-05-05T23:42:26.404Z,100.00
2023-05-05T23:44:52.914Z,100.00
2023-05-05T23:47:19.423Z,100.00
2023-05-05T23:49:45.985Z,100.00
2023-05-05T23:52:12.920Z,100.00
2023-05-05T23:54:39.909Z,100.00
2023-05-05T23:57:06.543Z,100.00
2023-05-05T23:59:33.071Z,100.00
